Список аэропортов
Фактическая погода:

26 апреля, 12:00
Температура: +13°C (+10.6*)
Ветер: западный 8 м/с
Давление: *760 мм
неб. 1380 м
Время (МСК)Темп. СВетерВлажностьДавлениеОблачностьОсадки
09:00+12З, 6 м/с76%1013 гПас прояснениямисл. дождь
10:00+13З, 8 м/с58%1013 гПас прояснениями
11:00+13З, 8 м/с49%1014 гПамалооблачно
12:00+14З, 8 м/с45%1014 гПамалооблачно
13:00+14З, 9 м/с41%1014 гПамалооблачно
14:00+15З, 9 м/с40%1014 гПаясно
15:00+15З, 10 м/с37%1014 гПамалооблачно
16:00+15З, 10 м/с35%1014 гПамалооблачно
17:00+16З, 9 м/с36%1014 гПамалооблачно
18:00+15З, 9 м/с36%1014 гПамалооблачно
19:00+15З, 9 м/с38%1015 гПамалооблачно
20:00+14З, 8 м/с42%1016 гПаясно
21:00+13З, 6 м/с44%1017 гПамалооблачно
22:00+11З, 3 м/с50%1017 гПаясно
23:00+10З, 3 м/с56%1018 гПамалооблачно
27 апреля
00:00+10З, 4 м/с56%1019 гПаясно
01:00+9З, 3 м/с58%1019 гПас прояснениями
02:00+8ЮЗ, 3 м/с64%1019 гПаоблачно
03:00+7ЮЗ, 3 м/с70%1019 гПаоблачно
04:00+7ЮЗ, 3 м/с73%1019 гПаоблачно
05:00+6З, 4 м/с74%1019 гПаоблачно
06:00+6З, 3 м/с77%1019 гПаоблачно
07:00+5З, 2 м/с81%1019 гПаоблачно
08:00+5Штиль 81%1019 гПаоблачно
09:00+8ЮВ, 1 м/с67%1019 гПас прояснениями
10:00+10В, 4 м/с56%1018 гПаясно
11:00+12В, 5 м/с47%1018 гПаясно
12:00+14ЮВ, 4 м/с44%1017 гПаоблачно
13:00+15ЮВ, 4 м/с41%1017 гПаоблачно
14:00+16ЮВ, 4 м/с39%1016 гПаоблачно
15:00+17ЮВ, 4 м/с37%1015 гПамалооблачно
16:00+18ЮВ, 4 м/с34%1014 гПаоблачно
17:00+19ЮВ, 5 м/с32%1013 гПаясно
18:00+19ЮВ, 4 м/с31%1013 гПаясно
19:00+20ЮВ, 5 м/с33%1012 гПаясно
20:00+19ЮВ, 5 м/с35%1012 гПамалооблачно
21:00+18ЮВ, 3 м/с44%1012 гПаясно
22:00+16ЮВ, 3 м/с52%1012 гПаясно
23:00+15ЮВ, 3 м/с58%1012 гПамалооблачно
28 апреля
00:00+13ЮВ, 3 м/с65%1013 гПаясно
01:00+12ЮВ, 2 м/с74%1012 гПаясно
02:00+11ЮВ, 2 м/с81%1012 гПаясно
03:00+10ЮВ, 2 м/с86%1012 гПас прояснениями
04:00+9Ю, 1 м/с91%1012 гПас прояснениями
05:00+8СВ, 1 м/с94%1012 гПаоблачно
06:00+8В, 2 м/с94%1012 гПаоблачно
07:00+8В, 2 м/с96%1012 гПаоблачно
08:00+8С, 1 м/с92%1013 гПаоблачно
09:00+11ЮВ, 1 м/с83%1013 гПаоблачно